Time;durP1;ratioP1;P1;durP2;ratioP2;P2;SDS_P1;SDS_P2;PMS_P1;PMS_P2;Temp;Humidity;BMP_temperature;BMP_pressure;BME280_temperature;BME280_humidity;BME280_pressure;Samples;Min_cycle;Max_cycle;Signal;HPM_P1;HPM_P2
2022/08/03 00:01:04;;;;;;;5.32;1.50;;;;;;;21.04;72.85;101520.00;5022342;28;20299;-74
2022/08/03 00:03:30;;;;;;;4.40;1.67;;;;;;;21.04;72.72;101520.00;5023778;28;20350;-74
2022/08/03 00:05:55;;;;;;;5.18;1.60;;;;;;;21.02;72.97;101515.75;5023869;28;20022;-74
2022/08/03 00:08:21;;;;;;;4.38;1.25;;;;;;;21.02;72.97;101515.75;5022277;28;20053;-74
2022/08/03 00:10:46;;;;;;;4.53;1.40;;;;;;;21.01;72.61;101511.38;5023028;28;20164;-74
2022/08/03 00:13:12;;;;;;;5.95;1.50;;;;;;;21.00;73.10;101512.38;5022194;28;20026;-74
2022/08/03 00:15:39;;;;;;;5.38;1.15;;;;;;;21.00;72.99;101509.72;5022541;28;20033;-74
2022/08/03 00:18:05;;;;;;;6.43;1.70;;;;;;;20.99;72.92;101516.84;5023448;28;20061;-74
2022/08/03 00:20:30;;;;;;;2.30;1.00;;;;;;;20.98;72.63;101508.97;5023229;28;20076;-74
2022/08/03 00:22:56;;;;;;;7.90;1.80;;;;;;;20.98;72.99;101509.81;5022416;28;20038;-74
2022/08/03 00:25:21;;;;;;;3.85;1.30;;;;;;;20.98;73.07;101506.31;5023212;28;20083;-74
2022/08/03 00:27:46;;;;;;;5.35;1.35;;;;;;;20.97;73.17;101505.44;5022927;28;20115;-74
2022/08/03 00:30:12;;;;;;;5.97;1.30;;;;;;;20.97;73.24;101502.78;5023098;28;20381;-74
2022/08/03 00:32:37;;;;;;;7.47;1.80;;;;;;;20.97;73.45;101504.59;5055389;28;20040;-74
2022/08/03 00:35:03;;;;;;;6.93;1.55;;;;;;;20.95;73.41;101506.53;5023176;28;20037;-74
2022/08/03 00:37:28;;;;;;;8.95;1.65;;;;;;;20.93;73.60;101503.97;5004964;28;20034;-74
2022/08/03 00:39:54;;;;;;;2.63;1.42;;;;;;;20.93;73.66;101497.81;5021640;28;20038;-74
2022/08/03 00:42:19;;;;;;;5.30;1.25;;;;;;;20.93;73.49;101501.31;5021139;28;20352;-74
2022/08/03 00:44:44;;;;;;;2.65;1.10;;;;;;;20.93;73.47;101500.47;5023205;28;20101;-74
2022/08/03 00:47:10;;;;;;;4.43;1.42;;;;;;;20.92;73.64;101504.09;5022703;28;20044;-74
2022/08/03 00:49:39;;;;;;;7.53;1.48;;;;;;;20.90;73.54;101499.75;5021338;28;20042;-74
2022/08/03 00:52:08;;;;;;;4.03;1.27;;;;;;;20.92;73.96;101498.75;5020660;28;20109;-74
2022/08/03 00:54:36;;;;;;;4.50;1.58;;;;;;;20.90;74.05;101502.41;5022218;28;20053;-74
2022/08/03 00:57:01;;;;;;;6.85;2.00;;;;;;;20.88;73.88;101488.38;5021662;28;20041;-74
2022/08/03 00:59:27;;;;;;;5.30;1.55;;;;;;;20.88;74.03;101488.38;5004401;28;20037;-74
2022/08/03 01:01:53;;;;;;;8.30;2.10;;;;;;;20.87;74.17;101488.47;5022818;28;20033;-74
2022/08/03 01:04:18;;;;;;;3.55;1.40;;;;;;;20.86;73.85;101484.94;5022171;28;20029;-74
2022/08/03 01:07:02;;;;;;;5.15;1.60;;;;;;;20.85;74.25;101479.75;5021276;28;20030;-74
2022/08/03 01:09:48;;;;;;;5.05;1.55;;;;;;;20.84;74.41;101481.53;5022139;28;20033;-74
2022/08/03 01:12:37;;;;;;;2.75;1.27;;;;;;;20.82;74.65;101475.50;5022326;28;20017;-74
2022/08/03 01:15:08;;;;;;;4.30;1.42;;;;;;;20.82;74.55;101472.81;5022826;28;20029;-74
2022/08/03 01:17:50;;;;;;;2.40;1.13;;;;;;;20.81;74.29;101473.81;5021949;28;20026;-74
2022/08/03 01:20:17;;;;;;;1.50;1.00;;;;;;;20.79;73.95;101478.41;5020760;28;20362;-74
2022/08/03 01:22:48;;;;;;;3.35;1.25;;;;;;;20.79;74.10;101483.72;5022269;28;20308;-74
2022/08/03 01:25:39;;;;;;;6.90;1.42;;;;;;;20.78;74.89;101478.50;5053493;28;20022;-74
2022/08/03 01:28:42;;;;;;;3.10;1.20;;;;;;;20.75;74.75;101479.56;5022685;28;20061;-74
2022/08/03 01:31:10;;;;;;;4.60;1.50;;;;;;;20.75;74.88;101482.22;5021364;28;20072;-74
2022/08/03 01:33:42;;;;;;;10.35;1.88;;;;;;;20.73;74.76;101481.50;5022315;28;20053;-74
2022/08/03 01:36:14;;;;;;;5.22;1.42;;;;;;;20.72;74.77;101479.81;5022247;28;20025;-74
2022/08/03 01:39:08;;;;;;;4.80;1.40;;;;;;;20.70;74.72;101487.03;5021857;28;20124;-74
2022/08/03 01:41:38;;;;;;;5.43;1.52;;;;;;;20.70;74.73;101481.72;5020105;28;20431;-74
2022/08/03 01:44:08;;;;;;;2.25;1.30;;;;;;;20.68;74.92;101481.84;5021899;28;20021;-74
2022/08/03 01:46:35;;;;;;;3.50;1.30;;;;;;;20.67;75.11;101484.63;5021419;28;20039;-74
2022/08/03 01:49:02;;;;;;;2.70;1.10;;;;;;;20.65;74.98;101479.41;5021916;28;20047;-74
2022/08/03 01:51:29;;;;;;;4.47;1.27;;;;;;;20.64;75.10;101469.72;5021771;28;20391;-74
2022/08/03 01:53:56;;;;;;;4.28;1.52;;;;;;;20.64;75.26;101466.19;5021714;28;20220;-74
2022/08/03 01:56:24;;;;;;;4.93;1.50;;;;;;;20.63;75.16;101464.50;5003430;28;20089;-74
2022/08/03 01:58:53;;;;;;;5.95;1.63;;;;;;;20.62;75.29;101468.97;5022360;28;20029;-74
2022/08/03 02:01:21;;;;;;;4.32;1.52;;;;;;;20.61;75.21;101461.97;5021159;28;20026;-74
2022/08/03 02:03:48;;;;;;;4.43;1.63;;;;;;;20.59;75.26;101469.19;5053445;28;20038;-74
2022/08/03 02:06:15;;;;;;;5.28;1.40;;;;;;;20.60;75.56;101475.34;5021637;28;20624;-74
2022/08/03 02:08:43;;;;;;;5.43;1.50;;;;;;;20.58;75.69;101463.97;5020399;28;20029;-76
2022/08/03 02:11:09;;;;;;;6.75;1.73;;;;;;;20.58;75.71;101464.81;5017031;28;20042;-77
2022/08/03 02:13:35;;;;;;;6.35;1.50;;;;;;;20.55;75.73;101458.88;5016797;28;20358;-77
2022/08/03 02:16:05;;;;;;;6.05;1.83;;;;;;;20.53;75.83;101459.81;5016863;28;20241;-77
2022/08/03 02:18:32;;;;;;;4.18;1.30;;;;;;;20.52;75.78;101462.59;5016612;28;20038;-77
2022/08/03 02:21:01;;;;;;;4.32;1.50;;;;;;;20.51;75.54;101460.91;5015556;28;20280;-77
2022/08/03 02:23:26;;;;;;;6.53;1.65;;;;;;;20.50;75.67;101456.53;5015988;28;20053;-77
2022/08/03 02:25:56;;;;;;;10.23;1.88;;;;;;;20.49;75.85;101458.34;5016639;28;20049;-77
2022/08/03 02:28:28;;;;;;;3.20;1.35;;;;;;;20.47;75.73;101457.59;5015858;28;20052;-76
2022/08/03 02:30:55;;;;;;;3.17;1.55;;;;;;;20.47;75.88;101460.28;5016495;28;20293;-77
2022/08/03 02:33:27;;;;;;;4.50;1.20;;;;;;;20.45;75.85;101450.72;5016182;28;20341;-77
2022/08/03 02:35:53;;;;;;;3.47;1.35;;;;;;;20.43;75.82;101461.47;5015021;28;20025;-77
2022/08/03 02:38:22;;;;;;;3.25;1.10;;;;;;;20.43;75.56;101447.28;5016129;28;20109;-76
2022/08/03 02:40:49;;;;;;;3.65;1.52;;;;;;;20.42;75.65;101445.59;5016863;28;20073;-77
2022/08/03 02:43:18;;;;;;;6.15;1.58;;;;;;;20.40;75.74;101448.38;5015649;28;20372;-76
2022/08/03 02:45:46;;;;;;;1.83;1.25;;;;;;;20.40;75.80;101451.03;5016539;28;20038;-77
2022/08/03 02:48:17;;;;;;;3.53;1.88;;;;;;;20.38;76.20;101458.28;5015776;28;20092;-76
2022/08/03 02:50:44;;;;;;;8.30;1.52;;;;;;;20.37;75.87;101451.25;5014909;28;20272;-76
2022/08/03 02:53:11;;;;;;;3.20;1.50;;;;;;;20.35;76.00;101450.50;5016055;28;20372;-76
2022/08/03 02:55:38;;;;;;;4.22;1.63;;;;;;;20.34;76.11;101440.84;5020650;28;20038;-74
2022/08/03 02:58:05;;;;;;;2.90;1.20;;;;;;;20.33;76.19;101444.47;5052495;28;20097;-74
2022/08/03 03:00:32;;;;;;;6.43;2.35;;;;;;;20.32;76.21;101440.13;5052349;28;20088;-74
2022/08/03 03:03:00;;;;;;;8.55;1.67;;;;;;;20.30;76.40;101445.53;5021026;28;20333;-74
2022/08/03 03:05:26;;;;;;;6.47;1.80;;;;;;;20.30;76.23;101439.34;5020060;28;20036;-74
2022/08/03 03:07:52;;;;;;;4.30;1.73;;;;;;;20.28;76.28;101441.28;5019114;28;20038;-74
2022/08/03 03:10:19;;;;;;;10.23;1.88;;;;;;;20.27;76.28;101442.25;5019597;28;20048;-74
2022/08/03 03:12:45;;;;;;;3.03;1.67;;;;;;;20.25;76.07;101436.19;5003264;28;20037;-74
2022/08/03 03:15:11;;;;;;;4.82;1.40;;;;;;;20.24;76.35;101432.66;5023163;28;20242;-74
2022/08/03 03:17:38;;;;;;;3.53;1.58;;;;;;;20.23;76.29;101432.78;5024504;28;20336;-74
2022/08/03 03:20:05;;;;;;;9.45;1.85;;;;;;;20.22;76.34;101431.09;5024599;28;20483;-74
2022/08/03 03:22:32;;;;;;;8.07;1.55;;;;;;;20.21;76.30;101434.69;5039321;28;20032;-74
2022/08/03 03:24:58;;;;;;;6.70;1.67;;;;;;;20.19;75.86;101434.81;5023228;28;20348;-74
2022/08/03 03:27:24;;;;;;;6.80;1.60;;;;;;;20.20;76.11;101446.31;5023372;28;20092;-74
2022/08/03 03:29:50;;;;;;;2.05;1.45;;;;;;;20.18;75.97;101443.75;5024399;28;20022;-74
2022/08/03 03:32:16;;;;;;;4.07;1.80;;;;;;;20.17;76.01;101442.03;5022461;28;20041;-74
2022/08/03 03:34:42;;;;;;;5.47;1.77;;;;;;;20.16;76.21;101439.53;5023460;28;20045;-74
2022/08/03 03:37:07;;;;;;;5.38;1.30;;;;;;;20.15;75.98;101443.97;5022798;28;20025;-74
2022/08/03 03:39:35;;;;;;;3.15;1.48;;;;;;;20.14;75.36;101443.13;5023254;28;20101;-74
2022/08/03 03:42:01;;;;;;;8.52;1.80;;;;;;;20.14;75.65;101444.94;5055970;28;20026;-74
2022/08/03 03:44:28;;;;;;;5.60;1.50;;;;;;;20.14;75.68;101442.28;5005495;28;20025;-74
2022/08/03 03:46:55;;;;;;;5.25;1.48;;;;;;;20.12;75.77;101437.06;5024121;28;20360;-74
2022/08/03 03:49:20;;;;;;;4.93;1.55;;;;;;;20.12;76.24;101441.56;5023201;28;20040;-74
2022/08/03 03:51:45;;;;;;;2.90;1.20;;;;;;;20.10;75.95;101439.00;5006520;28;20042;-74
2022/08/03 03:54:11;;;;;;;4.28;1.40;;;;;;;20.09;75.50;101447.91;5022524;28;20133;-74
2022/08/03 03:56:37;;;;;;;7.65;1.77;;;;;;;20.09;75.64;101447.91;5024018;28;20093;-74
2022/08/03 03:59:02;;;;;;;6.68;1.95;;;;;;;20.08;75.88;101446.25;5023661;28;20460;-74
2022/08/03 04:01:28;;;;;;;9.40;1.92;;;;;;;20.08;76.05;101448.91;5022053;28;20245;-74
2022/08/03 04:03:53;;;;;;;3.42;1.10;;;;;;;20.08;76.24;101448.03;5055525;28;20377;-74
2022/08/03 04:11:50;;;;;;;5.63;1.77;;;;;;;20.04;76.41;101446.56;5023434;28;20096;-74
2022/08/03 04:14:27;;;;;;;6.38;1.85;;;;;;;20.01;76.55;101444.09;5020878;28;20040;-74
2022/08/03 04:16:56;;;;;;;3.80;1.75;;;;;;;20.01;76.60;101449.41;5021851;28;20057;-74
2022/08/03 04:19:31;;;;;;;6.85;1.92;;;;;;;19.99;76.80;101448.69;5020546;28;20017;-74
2022/08/03 04:22:01;;;;;;;6.32;1.40;;;;;;;19.98;76.85;101455.81;5021470;28;20352;-74
2022/08/03 04:24:33;;;;;;;3.92;1.65;;;;;;;19.96;76.80;101452.41;5019571;28;20092;-74
2022/08/03 04:27:01;;;;;;;4.18;1.85;;;;;;;19.95;76.93;101450.72;5021078;28;20334;-74
2022/08/03 04:29:28;;;;;;;6.13;1.70;;;;;;;19.94;77.20;101449.03;5036281;28;20026;-74
2022/08/03 04:31:57;;;;;;;6.32;1.48;;;;;;;19.92;77.22;101457.09;5020293;28;20229;-74
2022/08/03 04:34:22;;;;;;;6.13;1.60;;;;;;;19.92;77.33;101449.13;5020042;28;20033;-74
2022/08/03 04:36:53;;;;;;;4.55;1.40;;;;;;;19.91;77.50;101451.88;5019755;28;20053;-74
2022/08/03 04:39:25;;;;;;;7.90;1.67;;;;;;;19.89;77.33;101456.47;5021505;28;20096;-74
2022/08/03 04:41:54;;;;;;;6.85;2.03;;;;;;;19.88;77.20;101454.75;5021292;28;20356;-74
2022/08/03 04:44:22;;;;;;;5.82;1.52;;;;;;;19.87;77.64;101464.53;5019682;28;20022;-74
2022/08/03 04:46:48;;;;;;;5.50;1.60;;;;;;;19.86;77.25;101462.81;5019752;28;20033;-73
2022/08/03 04:49:14;;;;;;;7.50;2.10;;;;;;;19.86;77.51;101467.31;5018858;28;20302;-74
2022/08/03 04:51:41;;;;;;;6.72;2.15;;;;;;;19.84;77.57;101462.09;5020860;28;20033;-74
2022/08/03 04:54:11;;;;;;;8.23;1.70;;;;;;;19.84;77.63;101463.91;5019861;28;20049;-74
2022/08/03 04:56:39;;;;;;;4.47;1.60;;;;;;;19.84;77.65;101469.22;5020740;28;20322;-74
2022/08/03 04:59:05;;;;;;;6.20;1.77;;;;;;;19.82;77.61;101471.13;5020918;28;20050;-74
2022/08/03 05:01:31;;;;;;;3.58;1.88;;;;;;;19.82;77.61;101477.28;5020025;28;20045;-74
2022/08/03 05:03:56;;;;;;;5.82;1.48;;;;;;;19.81;77.47;101472.97;5021012;28;20037;-74
2022/08/03 05:06:21;;;;;;;6.55;1.77;;;;;;;19.81;77.42;101470.28;5018760;28;20237;-74
2022/08/03 05:08:47;;;;;;;5.70;2.05;;;;;;;19.80;77.29;101479.22;5020897;28;20096;-74
2022/08/03 05:11:14;;;;;;;6.20;2.05;;;;;;;19.80;77.70;101475.72;5020436;28;20059;-74
2022/08/03 05:13:39;;;;;;;5.55;1.50;;;;;;;19.79;77.62;101484.63;5020436;28;20292;-74
2022/08/03 05:16:04;;;;;;;3.80;1.38;;;;;;;19.79;76.90;101484.63;5002787;28;20034;-74
2022/08/03 05:18:31;;;;;;;5.72;1.85;;;;;;;19.79;76.97;101485.47;5018766;28;20345;-74
2022/08/03 05:20:56;;;;;;;4.15;1.77;;;;;;;19.78;76.84;101483.78;5019166;28;20041;-74
2022/08/03 05:23:21;;;;;;;7.05;1.70;;;;;;;19.78;76.49;101483.78;5018801;28;20178;-73
2022/08/03 05:25:47;;;;;;;5.43;1.45;;;;;;;19.79;76.50;101487.28;5018659;28;20042;-74
2022/08/03 05:28:12;;;;;;;16.27;2.47;;;;;;;19.79;76.56;101489.94;5020219;28;20295;-74
2022/08/03 05:30:38;;;;;;;8.65;2.08;;;;;;;19.80;76.46;101489.00;5018467;28;20085;-74
2022/08/03 05:33:03;;;;;;;4.75;1.70;;;;;;;19.79;76.68;101495.25;5020094;28;20501;-74
2022/08/03 05:35:30;;;;;;;6.80;1.90;;;;;;;19.80;76.45;101489.84;5034724;28;20101;-74
2022/08/03 05:37:56;;;;;;;8.65;1.70;;;;;;;19.81;76.24;101485.38;5019158;28;20413;-74
2022/08/03 05:40:21;;;;;;;6.57;2.05;;;;;;;19.80;75.95;101492.50;5018032;28;20042;-74
2022/08/03 05:42:46;;;;;;;6.05;1.73;;;;;;;19.81;76.36;101490.69;5001924;28;20040;-74
2022/08/03 05:45:17;;;;;;;5.32;2.08;;;;;;;19.81;75.95;101488.03;5018051;28;20310;-74
2022/08/03 05:47:43;;;;;;;10.35;1.90;;;;;;;19.82;75.92;101492.41;5020188;28;20133;-74
2022/08/03 05:50:13;;;;;;;5.00;1.38;;;;;;;19.82;75.76;101493.25;5019502;28;20068;-74
2022/08/03 05:52:39;;;;;;;6.82;2.30;;;;;;;19.82;75.56;101495.91;5019767;28;20049;-74
2022/08/03 05:55:08;;;;;;;7.05;2.50;;;;;;;19.83;76.14;101500.28;5019426;28;20202;-74
2022/08/03 05:57:34;;;;;;;8.65;2.35;;;;;;;19.84;76.54;101495.78;5018697;28;20061;-74
2022/08/03 06:00:03;;;;;;;9.40;2.45;;;;;;;19.84;76.57;101495.78;5019674;28;20533;-74
2022/08/03 06:02:29;;;;;;;8.00;2.97;;;;;;;19.84;76.48;101495.78;5017308;28;20022;-74
2022/08/03 06:04:54;;;;;;;12.73;3.85;;;;;;;19.84;76.75;101491.31;5017724;28;20111;-74
2022/08/03 06:07:20;;;;;;;10.43;4.32;;;;;;;19.84;77.05;101493.13;5018348;28;20018;-74
2022/08/03 06:09:45;;;;;;;8.88;4.68;;;;;;;19.84;76.94;101490.47;5018371;28;20077;-74
2022/08/03 06:12:11;;;;;;;8.15;4.75;;;;;;;19.83;76.77;101491.44;5033621;28;20049;-74
2022/08/03 06:14:36;;;;;;;11.52;5.57;;;;;;;19.82;76.11;101493.25;5017568;28;20034;-74
2022/08/03 06:17:02;;;;;;;10.23;5.10;;;;;;;19.82;75.75;101492.41;5017641;28;20140;-74
2022/08/03 06:19:27;;;;;;;8.63;5.32;;;;;;;19.82;75.71;101493.25;5001159;28;20068;-74
2022/08/03 06:21:53;;;;;;;11.18;4.82;;;;;;;19.83;76.06;101491.44;5017332;28;20041;-74
2022/08/03 06:24:18;;;;;;;7.93;4.53;;;;;;;19.83;76.22;101486.97;5018493;28;20048;-74
2022/08/03 06:26:44;;;;;;;10.35;5.38;;;;;;;19.83;76.59;101494.97;5016982;28;20307;-74
2022/08/03 06:29:09;;;;;;;17.65;5.75;;;;;;;19.84;77.13;101493.97;5018579;28;20034;-74
2022/08/03 06:31:35;;;;;;;10.55;5.35;;;;;;;19.84;77.11;101493.97;5017341;28;20091;-74
2022/08/03 06:34:02;;;;;;;16.60;6.00;;;;;;;19.84;76.82;101493.97;5026304;28;20033;-74
2022/08/03 06:36:30;;;;;;;12.60;5.97;;;;;;;19.86;77.36;101499.19;5034751;28;20033;-74
2022/08/03 06:38:59;;;;;;;12.05;7.05;;;;;;;19.84;76.68;101501.13;5032471;28;20344;-74
2022/08/03 06:41:25;;;;;;;10.15;7.22;;;;;;;19.85;76.97;101498.34;5036949;28;20040;-74
2022/08/03 06:43:51;;;;;;;11.05;6.05;;;;;;;19.86;76.89;101505.34;5036178;28;20041;-74
2022/08/03 06:46:16;;;;;;;12.25;7.22;;;;;;;19.85;76.69;101506.31;5038009;28;20026;-74
2022/08/03 06:48:42;;;;;;;7.63;6.30;;;;;;;19.87;77.50;101507.06;5036332;28;20045;-74
2022/08/03 06:51:07;;;;;;;8.02;6.80;;;;;;;19.88;77.02;101510.56;5036749;28;20281;-74
2022/08/03 06:53:33;;;;;;;10.85;7.07;;;;;;;19.89;77.10;101512.28;5036259;28;20451;-74
2022/08/03 06:55:59;;;;;;;15.25;7.80;;;;;;;19.89;77.90;101518.44;5037022;28;20037;-74
2022/08/03 06:58:24;;;;;;;9.98;6.85;;;;;;;19.91;77.33;101507.72;5035706;28;20036;-74
2022/08/03 07:00:50;;;;;;;17.40;9.52;;;;;;;19.92;77.51;101517.41;5036645;28;20099;-74
2022/08/03 07:03:16;;;;;;;18.73;9.13;;;;;;;19.93;77.71;101511.94;5036780;28;20026;-74
2022/08/03 07:05:42;;;;;;;15.75;9.13;;;;;;;19.94;77.74;101508.34;5020056;28;20052;-74
2022/08/03 07:08:08;;;;;;;12.95;9.60;;;;;;;19.95;77.08;101509.19;5034733;28;20033;-74
2022/08/03 07:10:34;;;;;;;15.38;9.13;;;;;;;19.96;77.61;101513.56;5036016;28;20352;-74
2022/08/03 07:12:59;;;;;;;12.63;8.85;;;;;;;19.98;77.26;101519.63;5037338;28;20033;-74
2022/08/03 07:15:24;;;;;;;13.02;9.38;;;;;;;20.00;77.42;101514.19;5036148;28;20337;-74
2022/08/03 07:17:50;;;;;;;13.18;8.10;;;;;;;20.02;76.66;101520.25;5036500;28;20041;-74
2022/08/03 07:20:17;;;;;;;20.33;9.68;;;;;;;20.02;77.09;101523.75;5038381;28;20279;-74
2022/08/03 07:22:43;;;;;;;11.40;8.80;;;;;;;20.04;77.19;101527.16;5036515;28;20268;-74
2022/08/03 07:25:09;;;;;;;13.40;10.20;;;;;;;20.05;77.65;101538.66;5037814;28;20037;-74
2022/08/03 07:27:34;;;;;;;13.75;9.98;;;;;;;20.07;77.09;101542.06;5037534;28;20060;-74
2022/08/03 07:30:00;;;;;;;20.95;11.40;;;;;;;20.07;77.42;101550.03;5038481;28;20037;-74
2022/08/03 07:32:27;;;;;;;12.40;10.65;;;;;;;20.09;77.05;101545.44;5035619;28;20041;-74
2022/08/03 07:34:52;;;;;;;15.30;11.65;;;;;;;20.10;77.63;101540.03;5033727;28;20061;-74
2022/08/03 07:37:18;;;;;;;16.15;12.18;;;;;;;20.13;77.39;101552.25;5036050;28;20052;-74
2022/08/03 07:39:44;;;;;;;17.15;11.50;;;;;;;20.13;76.92;101545.13;5037727;28;20411;-74
2022/08/03 07:42:09;;;;;;;14.10;10.52;;;;;;;20.13;76.86;101545.13;5036785;28;20021;-74
2022/08/03 07:44:35;;;;;;;16.98;10.98;;;;;;;20.14;76.59;101552.16;5036150;28;20044;-74
2022/08/03 07:47:00;;;;;;;12.80;10.10;;;;;;;20.16;76.69;101552.06;5036636;28;20042;-74
2022/08/03 07:49:25;;;;;;;11.57;9.52;;;;;;;20.15;76.76;101550.34;5018828;28;20114;-74
2022/08/03 07:54:35;;;;;;;20.15;10.40;;;;;;;20.17;77.13;101551.06;5036729;28;20359;-74
2022/08/03 07:57:00;;;;;;;20.25;10.35;;;;;;;20.17;77.40;101550.22;5036040;28;20093;-74
2022/08/03 07:59:25;;;;;;;17.02;10.77;;;;;;;20.19;77.33;101558.94;5037106;28;20029;-74
2022/08/03 08:01:52;;;;;;;22.02;9.95;;;;;;;20.19;77.37;101550.97;5022538;28;20068;-74
2022/08/03 08:04:18;;;;;;;18.25;10.75;;;;;;;20.22;77.74;101558.75;5040815;28;20037;-74
2022/08/03 08:06:43;;;;;;;17.88;10.77;;;;;;;20.21;78.25;101560.56;5037565;28;20048;-74
2022/08/03 08:09:10;;;;;;;16.42;10.95;;;;;;;20.21;78.21;101559.69;5013828;28;20037;-74
2022/08/03 08:11:36;;;;;;;16.23;11.52;;;;;;;20.24;77.88;101562.13;5040733;28;20033;-74
2022/08/03 08:14:02;;;;;;;19.95;10.48;;;;;;;20.22;77.68;101556.91;5039322;28;20105;-74
2022/08/03 08:16:28;;;;;;;11.07;9.88;;;;;;;20.24;77.85;101559.47;5038632;28;20293;-74
2022/08/03 08:18:54;;;;;;;18.50;9.30;;;;;;;20.24;77.47;101554.16;5040995;28;20072;-74
2022/08/03 08:21:19;;;;;;;15.05;9.65;;;;;;;20.26;77.51;101557.56;5039952;28;20045;-74
2022/08/03 08:23:44;;;;;;;14.93;10.63;;;;;;;20.27;77.89;101560.13;5022892;28;20037;-74
2022/08/03 08:26:10;;;;;;;15.18;9.77;;;;;;;20.30;77.75;101551.06;5040396;28;20099;-74
2022/08/03 08:28:36;;;;;;;14.15;9.50;;;;;;;20.32;77.75;101563.31;5038981;28;20359;-74
2022/08/03 08:31:01;;;;;;;15.93;9.88;;;;;;;20.33;77.71;101557.00;5040175;28;20117;-74
2022/08/03 08:33:27;;;;;;;21.17;11.82;;;;;;;20.37;78.04;101552.31;5039016;28;20048;-74
2022/08/03 08:35:52;;;;;;;13.55;9.02;;;;;;;20.39;77.42;101553.09;5041238;28;20048;-74
2022/08/03 08:38:18;;;;;;;15.48;9.95;;;;;;;20.42;77.63;101549.34;5039252;28;20329;-74
2022/08/03 08:40:43;;;;;;;12.40;9.80;;;;;;;20.44;77.57;101561.56;5040565;28;20061;-74
2022/08/03 08:43:08;;;;;;;14.15;9.48;;;;;;;20.46;77.39;101551.66;5040718;28;20037;-74
2022/08/03 08:45:34;;;;;;;18.90;11.30;;;;;;;20.49;77.25;101555.94;5039014;28;20380;-74
2022/08/03 08:48:01;;;;;;;15.40;10.80;;;;;;;20.51;77.59;101546.03;5039978;28;20041;-74
2022/08/03 08:50:27;;;;;;;10.07;9.07;;;;;;;20.53;76.96;101544.94;5039927;28;20101;-74
2022/08/03 08:52:52;;;;;;;14.90;10.25;;;;;;;20.55;77.47;101547.50;5039135;28;20038;-74
2022/08/03 08:55:21;;;;;;;13.10;9.32;;;;;;;20.58;77.83;101551.78;5021230;28;20128;-74
2022/08/03 08:57:58;;;;;;;16.80;9.52;;;;;;;20.61;77.62;101559.56;5040517;28;20053;-74
2022/08/03 09:00:23;;;;;;;12.23;8.65;;;;;;;20.64;77.38;101556.69;5039665;28;20324;-74
2022/08/03 09:02:49;;;;;;;17.00;10.07;;;;;;;20.65;77.73;101558.41;5040002;28;20100;-74
2022/08/03 09:05:17;;;;;;;11.70;8.20;;;;;;;20.68;77.09;101559.03;5018326;28;20068;-74
2022/08/03 09:07:44;;;;;;;18.80;10.18;;;;;;;20.71;77.32;101555.28;5030983;28;20108;-74
2022/08/03 09:10:11;;;;;;;11.82;8.13;;;;;;;20.73;76.99;101568.47;5071958;28;20041;-74
2022/08/03 09:12:41;;;;;;;13.27;8.38;;;;;;;20.75;76.84;101572.72;5039001;28;20072;-74
2022/08/03 09:15:18;;;;;;;16.85;8.60;;;;;;;20.78;76.73;101574.31;5040827;28;20044;-74
2022/08/03 09:17:44;;;;;;;21.20;9.43;;;;;;;20.79;76.33;101568.03;5040426;28;20033;-74
2022/08/03 09:20:10;;;;;;;13.90;8.63;;;;;;;20.83;76.99;101574.81;5039059;28;20304;-74
2022/08/03 09:22:51;;;;;;;8.95;7.70;;;;;;;20.87;77.13;101576.31;5038602;28;20414;-74
2022/08/03 09:25:17;;;;;;;15.13;8.77;;;;;;;20.90;76.72;101578.75;5028218;28;20533;-74
2022/08/03 09:27:44;;;;;;;18.88;8.73;;;;;;;20.92;76.45;101583.94;5039856;28;20045;-74
2022/08/03 09:30:14;;;;;;;17.80;9.27;;;;;;;20.94;76.23;101580.25;5038311;28;20052;-74
2022/08/03 09:32:40;;;;;;;13.50;8.10;;;;;;;20.96;76.10;101580.13;5038107;28;20095;-74
2022/08/03 09:35:07;;;;;;;13.60;8.00;;;;;;;20.98;76.51;101584.38;5029732;28;20041;-74
2022/08/03 09:37:33;;;;;;;11.30;7.40;;;;;;;21.01;76.23;101578.84;5038945;28;20033;-74
2022/08/03 09:39:58;;;;;;;11.52;6.90;;;;;;;21.04;75.84;101578.59;5038585;28;20052;-74
2022/08/03 09:42:24;;;;;;;20.75;8.18;;;;;;;21.06;75.91;101576.66;5038091;28;20037;-74
2022/08/03 09:44:50;;;;;;;9.85;7.13;;;;;;;21.10;76.35;101577.28;5038938;28;20048;-74
2022/08/03 09:47:39;;;;;;;14.93;7.63;;;;;;;21.14;76.19;101569.91;5039542;28;20104;-74
2022/08/03 09:50:08;;;;;;;12.90;8.57;;;;;;;21.17;76.58;101569.69;5039888;28;20060;-74
2022/08/03 09:52:34;;;;;;;16.67;6.88;;;;;;;21.22;76.73;101565.72;5037627;28;20140;-74
2022/08/03 09:55:01;;;;;;;11.38;7.03;;;;;;;21.27;76.43;101565.41;5040292;28;20144;-74
2022/08/03 09:57:29;;;;;;;18.52;8.40;;;;;;;21.32;76.83;101565.91;5041017;28;20030;-74
2022/08/03 10:00:06;;;;;;;18.13;7.40;;;;;;;21.38;76.67;101575.25;5040517;28;20053;-74
2022/08/03 10:02:31;;;;;;;17.50;8.10;;;;;;;21.42;76.52;101560.72;5036561;28;20029;-74
2022/08/03 10:04:56;;;;;;;16.08;8.25;;;;;;;21.47;76.54;101569.25;5034858;28;20064;-74
2022/08/03 10:07:23;;;;;;;14.20;8.20;;;;;;;21.48;75.83;101557.63;5040303;28;20040;-74
2022/08/03 10:09:58;;;;;;;13.07;7.63;;;;;;;21.51;75.83;101562.72;5041459;28;20336;-74
2022/08/03 10:12:24;;;;;;;9.73;7.63;;;;;;;21.55;75.89;101566.00;5040840;28;20363;-74
2022/08/03 10:14:51;;;;;;;10.60;6.50;;;;;;;21.58;76.09;101566.63;5039791;28;20064;-74
2022/08/03 10:17:17;;;;;;;11.43;7.38;;;;;;;21.61;75.21;101558.41;5039366;28;20036;-74
2022/08/03 10:19:42;;;;;;;12.48;7.68;;;;;;;21.64;75.58;101565.31;5039391;28;20096;-74
2022/08/03 10:22:32;;;;;;;20.63;9.20;;;;;;;21.67;76.04;101563.25;5040239;28;20029;-74
2022/08/03 10:25:02;;;;;;;13.02;8.00;;;;;;;21.72;75.72;101562.94;5040863;28;20036;-74
2022/08/03 10:27:32;;;;;;;15.50;7.72;;;;;;;21.74;76.01;101554.78;5040564;28;20041;-74
2022/08/03 10:30:03;;;;;;;11.27;7.55;;;;;;;21.79;76.10;101560.63;5039623;28;20017;-74
2022/08/03 10:32:45;;;;;;;9.30;7.57;;;;;;;21.83;76.15;101560.28;5039010;28;20286;-74
2022/08/03 10:35:12;;;;;;;15.05;6.88;;;;;;;21.87;75.24;101560.06;5028888;28;20021;-74
2022/08/03 10:37:42;;;;;;;16.52;8.07;;;;;;;21.88;75.21;101559.06;5040945;28;20091;-75
2022/08/03 10:40:11;;;;;;;20.33;8.40;;;;;;;21.90;75.53;101555.31;5039934;28;20037;-74
2022/08/03 10:42:37;;;;;;;8.27;7.10;;;;;;;21.94;75.49;101561.25;5041352;28;20041;-74
2022/08/03 10:45:05;;;;;;;12.07;7.13;;;;;;;21.99;75.53;101551.06;5041295;28;20037;-74
2022/08/03 10:47:31;;;;;;;10.57;6.93;;;;;;;22.05;75.50;101554.13;5040490;28;20044;-74
2022/08/03 10:49:58;;;;;;;11.48;6.72;;;;;;;22.11;74.76;101559.94;5020041;28;20026;-74
2022/08/03 10:52:24;;;;;;;15.60;6.78;;;;;;;22.15;74.94;101554.25;5038359;28;20037;-74
2022/08/03 10:57:53;;;;;;;14.40;5.63;;;;;;;22.21;74.66;101551.13;5012654;28;20079;-74
2022/08/03 11:00:21;;;;;;;16.20;6.50;;;;;;;22.24;74.59;101550.00;5040282;28;20107;-74
2022/08/03 11:03:17;;;;;;;8.75;4.97;;;;;;;22.29;74.58;101550.53;5040655;28;20166;-74
2022/08/03 11:05:48;;;;;;;15.20;5.25;;;;;;;22.35;74.55;101549.19;5011254;28;20034;-74
2022/08/03 11:08:24;;;;;;;8.40;4.50;;;;;;;22.40;74.12;101544.34;5020282;28;20029;-74
2022/08/03 11:10:52;;;;;;;4.22;3.63;;;;;;;22.42;73.80;101521.88;5040471;28;20029;-74
2022/08/03 11:13:21;;;;;;;13.55;4.63;;;;;;;22.49;73.38;101540.09;5039109;28;20033;-74
2022/08/03 11:15:49;;;;;;;7.30;3.70;;;;;;;22.52;73.72;101535.38;5041339;28;20033;-74
2022/08/03 11:18:15;;;;;;;8.18;3.90;;;;;;;22.54;73.93;101536.09;5040325;28;20061;-74
2022/08/03 11:20:55;;;;;;;10.38;4.50;;;;;;;22.56;72.72;101530.63;5040552;28;20048;-74
2022/08/03 11:23:44;;;;;;;8.82;4.65;;;;;;;22.58;73.23;101534.84;5039905;28;20225;-74
2022/08/03 11:26:16;;;;;;;15.15;4.25;;;;;;;22.62;73.62;101538.97;5039840;28;20096;-74
2022/08/03 11:28:43;;;;;;;6.90;3.92;;;;;;;;;;5027303;28;20041;-74
2022/08/03 11:31:21;;;;;;;10.52;4.55;;;;;;;22.74;73.88;101536.28;5041244;28;20049;-74
2022/08/03 11:34:10;;;;;;;7.00;4.10;;;;;;;22.80;73.65;101539.28;5029986;28;20421;-74
2022/08/03 11:37:13;;;;;;;8.75;4.43;;;;;;;22.88;73.16;101533.31;5033023;28;20384;-74